Time;durP1;ratioP1;P1;durP2;ratioP2;P2;SDS_P1;SDS_P2;PMS_P1;PMS_P2;Temp;Humidity;BMP_temperature;BMP_pressure;BME280_temperature;BME280_humidity;BME280_pressure;Samples;Min_cycle;Max_cycle;Signal;HPM_P1;HPM_P2
2022/03/17 00:00:20;;;;;;;29.03;21.07;;;;;;;;;;5041913;28;20256;-90
2022/03/17 00:02:48;;;;;;;28.80;21.83;;;;;;;;;;5043615;28;20222;-88
2022/03/17 00:05:15;;;;;;;29.10;20.47;;;;;;;;;;5033749;28;20704;-89
2022/03/17 00:07:44;;;;;;;26.50;20.37;;;;;;;;;;5022394;28;20256;-90
2022/03/17 00:10:15;;;;;;;30.00;22.30;;;;;;;;;;5025226;28;20775;-90
2022/03/17 00:12:42;;;;;;;28.27;20.27;;;;;;;;;;5041772;28;20593;-89
2022/03/17 00:15:10;;;;;;;29.33;22.07;;;;;;;;;;5036527;28;20204;-89
2022/03/17 00:17:37;;;;;;;28.60;20.77;;;;;;;;;;5032574;28;20199;-90
2022/03/17 00:20:06;;;;;;;30.20;20.93;;;;;;;;;;5036034;28;20211;-89
2022/03/17 00:22:33;;;;;;;28.10;19.83;;;;;;;;;;5039120;28;20676;-90
2022/03/17 00:25:01;;;;;;;31.27;21.83;;;;;;;;;;5020628;28;20229;-89
2022/03/17 00:27:29;;;;;;;30.43;21.67;;;;;;;;;;5041457;28;20202;-89
2022/03/17 00:29:57;;;;;;;31.17;21.97;;;;;;;;;;5030042;28;20665;-89
2022/03/17 00:32:24;;;;;;;31.57;22.23;;;;;;;;;;5031541;28;20661;-89
2022/03/17 00:37:33;;;;;;;31.57;21.70;;;;;;;;;;5016697;28;20253;-90
2022/03/17 00:40:00;;;;;;;28.33;20.37;;;;;;;;;;5038012;28;20248;-89
2022/03/17 00:42:28;;;;;;;28.50;20.23;;;;;;;;;;5029174;28;20625;-90
2022/03/17 00:44:56;;;;;;;29.07;21.53;;;;;;;;;;5023913;28;20309;-89
2022/03/17 00:47:24;;;;;;;29.07;20.43;;;;;;;;;;5034968;28;20198;-89
2022/03/17 00:49:51;;;;;;;29.60;21.13;;;;;;;;;;5030056;28;20268;-89
2022/03/17 00:52:20;;;;;;;31.93;21.97;;;;;;;;;;5028911;28;20650;-89
2022/03/17 01:07:04;;;;;;;29.70;21.13;;;;;;;;;;5027596;28;20222;-90
2022/03/17 01:09:31;;;;;;;31.07;22.33;;;;;;;;;;5023660;28;20289;-89
2022/03/17 01:11:59;;;;;;;30.93;21.43;;;;;;;;;;5032567;28;20257;-90
2022/03/17 01:14:26;;;;;;;26.53;19.40;;;;;;;;;;5042559;28;20619;-89
2022/03/17 01:16:54;;;;;;;27.57;20.37;;;;;;;;;;5032979;28;20210;-88
2022/03/17 01:19:21;;;;;;;28.03;20.77;;;;;;;;;;5029077;28;20210;-89
2022/03/17 01:21:49;;;;;;;32.93;22.33;;;;;;;;;;5037985;28;20661;-89
2022/03/17 01:24:18;;;;;;;30.50;19.57;;;;;;;;;;5028983;28;20230;-89
2022/03/17 01:26:45;;;;;;;29.67;21.70;;;;;;;;;;5029390;28;20284;-90
2022/03/17 01:29:13;;;;;;;29.10;20.40;;;;;;;;;;5028222;28;20206;-89
2022/03/17 01:31:40;;;;;;;28.23;20.67;;;;;;;;;;5037996;28;20210;-89
2022/03/17 01:34:07;;;;;;;33.40;21.70;;;;;;;;;;5018596;28;20229;-90
2022/03/17 01:36:35;;;;;;;28.40;20.77;;;;;;;;;;5031121;28;20649;-90
2022/03/17 01:39:02;;;;;;;33.17;22.83;;;;;;;;;;5036839;28;20210;-89
2022/03/17 01:41:31;;;;;;;30.13;21.63;;;;;;;;;;5037773;28;20199;-89
2022/03/17 01:43:58;;;;;;;27.70;19.87;;;;;;;;;;5034194;28;20287;-89
2022/03/17 01:46:25;;;;;;;28.07;19.63;;;;;;;;;;5023862;28;20227;-90
2022/03/17 01:48:52;;;;;;;29.30;20.37;;;;;;;;;;5034390;28;20311;-90
2022/03/17 01:51:20;;;;;;;30.50;21.20;;;;;;;;;;5021552;28;20301;-90
2022/03/17 01:53:47;;;;;;;28.00;19.37;;;;;;;;;;5036096;28;20226;-90
2022/03/17 01:56:14;;;;;;;30.17;20.70;;;;;;;;;;5032867;28;20206;-89
2022/03/17 01:58:44;;;;;;;31.23;21.27;;;;;;;;;;5033999;28;20645;-90
2022/03/17 02:01:11;;;;;;;29.87;20.73;;;;;;;;;;5030965;28;20207;-89
2022/03/17 02:03:43;;;;;;;28.73;19.37;;;;;;;;;;5025032;28;20222;-88
2022/03/17 02:06:10;;;;;;;27.67;19.60;;;;;;;;;;5029087;28;20217;-90
2022/03/17 02:08:38;;;;;;;28.63;19.77;;;;;;;;;;5036647;28;20218;-90
2022/03/17 02:13:51;;;;;;;28.20;19.00;;;;;;;;;;5029286;28;20225;-89
2022/03/17 02:16:19;;;;;;;29.27;20.93;;;;;;;;;;5040019;28;20229;-89
2022/03/17 02:18:47;;;;;;;30.77;20.63;;;;;;;;;;5024184;28;20260;-89
2022/03/17 02:21:14;;;;;;;28.50;19.80;;;;;;;;;;5019770;28;20218;-89
2022/03/17 02:26:28;;;;;;;31.97;21.20;;;;;;;;;;5028273;28;20534;-89
2022/03/17 02:28:55;;;;;;;29.90;20.63;;;;;;;;;;5025840;28;20206;-89
2022/03/17 02:31:23;;;;;;;31.40;21.00;;;;;;;;;;5034058;28;20276;-90
2022/03/17 02:33:51;;;;;;;29.13;20.43;;;;;;;;;;5038261;28;20650;-89
2022/03/17 02:36:19;;;;;;;31.70;21.10;;;;;;;;;;5028711;28;20214;-90
2022/03/17 02:38:48;;;;;;;31.40;21.30;;;;;;;;;;5028719;28;20210;-89
2022/03/17 02:41:22;;;;;;;31.67;20.70;;;;;;;;;;5033158;28;20222;-89
2022/03/17 02:43:49;;;;;;;31.03;20.43;;;;;;;;;;5037994;28;20242;-90
2022/03/17 02:46:16;;;;;;;32.93;21.50;;;;;;;;;;5032047;28;20222;-89
2022/03/17 02:48:44;;;;;;;32.60;22.60;;;;;;;;;;5027184;28;20203;-89
2022/03/17 02:51:11;;;;;;;30.03;20.00;;;;;;;;;;5027934;28;20230;-89
2022/03/17 02:53:39;;;;;;;31.80;20.23;;;;;;;;;;5034776;28;20226;-90
2022/03/17 02:56:08;;;;;;;30.10;21.00;;;;;;;;;;5031924;28;20202;-89
2022/03/17 02:58:35;;;;;;;31.47;21.47;;;;;;;;;;5031062;28;20617;-89
2022/03/17 03:01:03;;;;;;;30.43;21.30;;;;;;;;;;5036875;28;20549;-89
2022/03/17 03:03:30;;;;;;;31.93;21.47;;;;;;;;;;5025274;28;20226;-89
2022/03/17 03:05:57;;;;;;;30.30;20.60;;;;;;;;;;5029119;28;20325;-90
2022/03/17 03:08:26;;;;;;;29.13;20.23;;;;;;;;;;5022882;28;20223;-90
2022/03/17 03:10:53;;;;;;;31.30;20.80;;;;;;;;;;5012771;28;20215;-90
2022/03/17 03:13:22;;;;;;;28.17;20.23;;;;;;;;;;5027722;28;20230;-89
2022/03/17 03:15:50;;;;;;;35.23;22.27;;;;;;;;;;5036262;28;20288;-90
2022/03/17 03:18:19;;;;;;;28.13;19.00;;;;;;;;;;5026236;28;20235;-89
2022/03/17 03:20:46;;;;;;;30.73;20.80;;;;;;;;;;5027266;28;20203;-89
2022/03/17 03:23:14;;;;;;;30.67;21.33;;;;;;;;;;5026554;28;20642;-89
2022/03/17 03:25:41;;;;;;;31.27;20.90;;;;;;;;;;5029296;28;20312;-89
2022/03/17 03:28:09;;;;;;;30.60;20.33;;;;;;;;;;5014357;28;20741;-90
2022/03/17 03:30:38;;;;;;;28.13;19.30;;;;;;;;;;5032280;28;20712;-90
2022/03/17 03:33:07;;;;;;;29.10;20.10;;;;;;;;;;5018855;28;20272;-89
2022/03/17 03:38:20;;;;;;;29.73;20.63;;;;;;;;;;5017987;28;20334;-89
2022/03/17 03:40:47;;;;;;;32.13;20.50;;;;;;;;;;5023726;28;20226;-90
2022/03/17 03:43:15;;;;;;;29.20;20.67;;;;;;;;;;5029430;28;20269;-89
2022/03/17 03:45:43;;;;;;;30.10;21.27;;;;;;;;;;5015808;28;20222;-90
2022/03/17 03:48:11;;;;;;;29.43;20.37;;;;;;;;;;5027401;28;20206;-90
2022/03/17 03:50:38;;;;;;;30.83;20.87;;;;;;;;;;5035936;28;20676;-89
2022/03/17 03:53:05;;;;;;;29.30;20.47;;;;;;;;;;5023023;28;20230;-89
2022/03/17 03:55:33;;;;;;;30.70;20.50;;;;;;;;;;5020813;28;20268;-90
2022/03/17 03:58:00;;;;;;;34.13;21.47;;;;;;;;;;5027333;28;20211;-89
2022/03/17 04:00:33;;;;;;;29.83;20.43;;;;;;;;;;5037576;28;20700;-89
2022/03/17 04:03:03;;;;;;;30.37;20.07;;;;;;;;;;5020375;28;20629;-89
2022/03/17 04:05:31;;;;;;;30.13;20.23;;;;;;;;;;5020638;28;20210;-89
2022/03/17 04:07:58;;;;;;;30.63;20.13;;;;;;;;;;5030262;28;20234;-89
2022/03/17 04:10:25;;;;;;;31.40;20.63;;;;;;;;;;5029784;28;20211;-90
2022/03/17 04:12:53;;;;;;;29.60;20.00;;;;;;;;;;5026857;28;20288;-89
2022/03/17 04:15:20;;;;;;;31.37;20.83;;;;;;;;;;5027882;28;20216;-89
2022/03/17 04:17:49;;;;;;;29.83;19.73;;;;;;;;;;5038973;28;20206;-91
2022/03/17 04:20:18;;;;;;;28.73;19.60;;;;;;;;;;5026018;28;20210;-89
2022/03/17 04:22:45;;;;;;;30.50;20.53;;;;;;;;;;5032184;28;20226;-89
2022/03/17 04:25:12;;;;;;;29.90;20.77;;;;;;;;;;5030746;28;20280;-89
2022/03/17 04:27:40;;;;;;;31.37;20.90;;;;;;;;;;5035334;28;20229;-90
2022/03/17 04:30:08;;;;;;;24.90;17.97;;;;;;;;;;5022094;28;20198;-90
2022/03/17 04:32:35;;;;;;;30.40;20.03;;;;;;;;;;5017790;28;20228;-89
2022/03/17 04:35:03;;;;;;;27.53;19.53;;;;;;;;;;5038075;28;20210;-89
2022/03/17 04:37:32;;;;;;;30.33;19.87;;;;;;;;;;5037330;28;20634;-90
2022/03/17 04:39:59;;;;;;;27.93;19.70;;;;;;;;;;5014374;28;20215;-89
2022/03/17 04:42:27;;;;;;;29.83;19.87;;;;;;;;;;5035452;28;20230;-91
2022/03/17 04:44:55;;;;;;;26.90;18.33;;;;;;;;;;5034392;28;20203;-90
2022/03/17 04:47:22;;;;;;;27.67;19.23;;;;;;;;;;5027514;28;20223;-90
2022/03/17 04:49:50;;;;;;;30.40;19.40;;;;;;;;;;5029659;28;20211;-89
2022/03/17 04:55:04;;;;;;;31.03;20.03;;;;;;;;;;5043304;28;20281;-89
2022/03/17 04:57:32;;;;;;;28.27;19.30;;;;;;;;;;5021490;28;20290;-89
2022/03/17 04:59:59;;;;;;;26.70;18.27;;;;;;;;;;5013036;28;20350;-89
2022/03/17 05:02:26;;;;;;;27.93;18.73;;;;;;;;;;5030716;28;20679;-89
2022/03/17 05:04:53;;;;;;;30.57;19.00;;;;;;;;;;5020088;28;20225;-89
2022/03/17 05:07:21;;;;;;;28.30;19.50;;;;;;;;;;5020355;28;20337;-89
2022/03/17 05:09:48;;;;;;;27.27;18.33;;;;;;;;;;5013359;28;20238;-90
2022/03/17 05:12:17;;;;;;;28.43;17.97;;;;;;;;;;5043083;28;20263;-89
2022/03/17 05:14:44;;;;;;;27.93;19.07;;;;;;;;;;5025099;28;20284;-89
2022/03/17 05:17:11;;;;;;;29.10;19.00;;;;;;;;;;5030981;28;20566;-89
2022/03/17 05:19:39;;;;;;;28.73;18.57;;;;;;;;;;5019409;28;20214;-89
2022/03/17 05:22:06;;;;;;;25.90;17.63;;;;;;;;;;5018480;28;20196;-89
2022/03/17 05:24:33;;;;;;;27.77;18.43;;;;;;;;;;5023119;28;20230;-90
2022/03/17 05:27:01;;;;;;;29.13;20.30;;;;;;;;;;5029788;28;20230;-89
2022/03/17 05:29:30;;;;;;;25.43;18.07;;;;;;;;;;5037665;28;20620;-89
2022/03/17 05:31:57;;;;;;;31.27;19.57;;;;;;;;;;5041149;28;20206;-90
2022/03/17 05:34:25;;;;;;;29.93;20.20;;;;;;;;;;5029690;28;20288;-89
2022/03/17 05:36:52;;;;;;;29.20;19.60;;;;;;;;;;5014197;28;20211;-89
2022/03/17 05:39:19;;;;;;;27.03;18.73;;;;;;;;;;5037763;28;20211;-89
2022/03/17 05:41:46;;;;;;;29.33;19.87;;;;;;;;;;5029935;28;20257;-90
2022/03/17 05:44:14;;;;;;;30.27;20.17;;;;;;;;;;5017826;28;20219;-90
2022/03/17 05:46:42;;;;;;;27.77;18.93;;;;;;;;;;5019419;28;20280;-88
2022/03/17 05:49:10;;;;;;;26.20;19.60;;;;;;;;;;5025813;28;20313;-89
2022/03/17 05:51:37;;;;;;;28.13;19.70;;;;;;;;;;5021851;28;20203;-90
2022/03/17 05:54:06;;;;;;;29.67;19.83;;;;;;;;;;5028307;28;20288;-89
2022/03/17 05:56:34;;;;;;;27.53;18.43;;;;;;;;;;5019397;28;20698;-90
2022/03/17 05:59:02;;;;;;;28.17;17.67;;;;;;;;;;5026346;28;20272;-89
2022/03/17 06:01:30;;;;;;;26.73;17.43;;;;;;;;;;5021137;28;20284;-90
2022/03/17 06:03:59;;;;;;;29.33;20.67;;;;;;;;;;5027168;28;20304;-89
2022/03/17 06:06:26;;;;;;;31.10;20.37;;;;;;;;;;5026439;28;20223;-89
2022/03/17 06:08:53;;;;;;;27.53;18.80;;;;;;;;;;5029754;28;20233;-90
2022/03/17 06:11:21;;;;;;;29.83;20.23;;;;;;;;;;5025357;28;20716;-89
2022/03/17 06:13:48;;;;;;;27.40;17.83;;;;;;;;;;5024603;28;20246;-89
2022/03/17 06:16:16;;;;;;;26.53;18.30;;;;;;;;;;5021675;28;20285;-90
2022/03/17 06:18:43;;;;;;;31.50;20.03;;;;;;;;;;5026054;28;20711;-91
2022/03/17 06:21:12;;;;;;;24.87;18.27;;;;;;;;;;5022576;28;20206;-89
2022/03/17 06:23:39;;;;;;;28.90;19.50;;;;;;;;;;5021866;28;20262;-89
2022/03/17 06:26:07;;;;;;;27.53;18.00;;;;;;;;;;5017690;28;20583;-89
2022/03/17 06:28:34;;;;;;;29.07;18.97;;;;;;;;;;5025486;28;20288;-89
2022/03/17 06:31:02;;;;;;;28.83;19.33;;;;;;;;;;5026794;28;20214;-89
2022/03/17 06:33:30;;;;;;;29.33;19.67;;;;;;;;;;5023421;28;20729;-91
2022/03/17 06:35:57;;;;;;;27.47;17.67;;;;;;;;;;5034591;28;20214;-89
2022/03/17 06:38:26;;;;;;;28.27;18.97;;;;;;;;;;5032985;28;20638;-89
2022/03/17 06:40:53;;;;;;;27.87;18.93;;;;;;;;;;5039708;28;20214;-89
2022/03/17 06:43:21;;;;;;;27.70;18.60;;;;;;;;;;5025937;28;20300;-89
2022/03/17 06:45:49;;;;;;;28.03;19.57;;;;;;;;;;5023658;28;20214;-89
2022/03/17 06:48:16;;;;;;;29.23;20.17;;;;;;;;;;5033500;28;20277;-89
2022/03/17 06:50:43;;;;;;;26.87;18.90;;;;;;;;;;5030426;28;20203;-89
2022/03/17 06:53:11;;;;;;;34.57;18.97;;;;;;;;;;5029649;28;20226;-89
2022/03/17 06:55:40;;;;;;;27.53;18.63;;;;;;;;;;5018925;28;20209;-89
2022/03/17 06:58:07;;;;;;;27.93;19.10;;;;;;;;;;5028920;28;20203;-89
2022/03/17 07:00:34;;;;;;;31.17;19.73;;;;;;;;;;5021505;28;20667;-90
2022/03/17 07:03:01;;;;;;;30.87;19.73;;;;;;;;;;5024037;28;20235;-89
2022/03/17 07:05:29;;;;;;;28.37;19.77;;;;;;;;;;5032817;28;20672;-89
2022/03/17 07:07:56;;;;;;;29.40;19.33;;;;;;;;;;5022433;28;20767;-90
2022/03/17 07:10:24;;;;;;;25.03;17.83;;;;;;;;;;5020835;28;20194;-89
2022/03/17 07:12:52;;;;;;;27.17;18.23;;;;;;;;;;5017279;28;20237;-90
2022/03/17 07:15:20;;;;;;;27.70;18.80;;;;;;;;;;5032770;28;20275;-89
2022/03/17 07:17:47;;;;;;;29.20;18.87;;;;;;;;;;5020983;28;20200;-89
2022/03/17 07:20:15;;;;;;;32.37;20.07;;;;;;;;;;5018220;28;20209;-90
2022/03/17 07:22:43;;;;;;;31.07;19.57;;;;;;;;;;5023328;28;20295;-90
2022/03/17 07:25:11;;;;;;;31.13;19.73;;;;;;;;;;5032001;28;20213;-89
2022/03/17 07:27:40;;;;;;;29.37;19.83;;;;;;;;;;5016699;28;20592;-89
2022/03/17 07:30:10;;;;;;;30.60;20.27;;;;;;;;;;5018191;28;20262;-89
2022/03/17 07:32:38;;;;;;;29.50;19.80;;;;;;;;;;5036781;28;20230;-89
2022/03/17 07:35:06;;;;;;;30.47;19.87;;;;;;;;;;5029504;28;20198;-89
2022/03/17 07:37:33;;;;;;;30.47;21.00;;;;;;;;;;5028630;28;20207;-89
2022/03/17 07:40:00;;;;;;;31.40;20.10;;;;;;;;;;5021274;28;20206;-89
2022/03/17 07:42:27;;;;;;;30.80;20.73;;;;;;;;;;5023635;28;20253;-91
2022/03/17 07:44:55;;;;;;;29.30;20.30;;;;;;;;;;5012220;28;20206;-90
2022/03/17 07:47:24;;;;;;;28.20;18.73;;;;;;;;;;5014128;28;20250;-91
2022/03/17 07:49:52;;;;;;;31.40;21.30;;;;;;;;;;5026991;28;20637;-90
2022/03/17 07:52:20;;;;;;;31.23;21.03;;;;;;;;;;5036833;28;20293;-90
2022/03/17 07:54:47;;;;;;;32.40;20.67;;;;;;;;;;5043143;28;20640;-89
2022/03/17 07:57:15;;;;;;;30.60;19.80;;;;;;;;;;5040594;28;20196;-90
2022/03/17 07:59:43;;;;;;;30.70;21.23;;;;;;;;;;5023571;28;20237;-91
2022/03/17 08:02:10;;;;;;;32.80;20.80;;;;;;;;;;5028114;28;20244;-89
2022/03/17 08:04:40;;;;;;;29.90;20.37;;;;;;;;;;5037445;28;20234;-89
2022/03/17 08:07:07;;;;;;;27.70;20.03;;;;;;;;;;5034181;28;20818;-89
2022/03/17 08:09:34;;;;;;;30.43;20.13;;;;;;;;;;5044843;28;20210;-89
2022/03/17 08:12:02;;;;;;;29.50;19.57;;;;;;;;;;5029893;28;20211;-90
2022/03/17 08:14:29;;;;;;;30.20;20.47;;;;;;;;;;5039107;28;20226;-89
2022/03/17 08:16:56;;;;;;;28.77;19.63;;;;;;;;;;5026389;28;20214;-89
2022/03/17 08:19:23;;;;;;;29.33;20.00;;;;;;;;;;5015764;28;20277;-88
2022/03/17 08:21:53;;;;;;;29.77;21.13;;;;;;;;;;5021887;28;20219;-90
2022/03/17 08:24:28;;;;;;;32.80;21.20;;;;;;;;;;5022465;28;20708;-89
2022/03/17 08:26:56;;;;;;;29.37;19.83;;;;;;;;;;5034986;28;20865;-89
2022/03/17 08:29:23;;;;;;;31.17;20.93;;;;;;;;;;5034038;28;20305;-89
2022/03/17 08:31:51;;;;;;;33.53;20.70;;;;;;;;;;5038558;28;20267;-89
2022/03/17 08:34:18;;;;;;;33.60;22.27;;;;;;;;;;5043533;28;20272;-89
2022/03/17 08:36:46;;;;;;;28.07;19.27;;;;;;;;;;5033231;28;20226;-89
2022/03/17 08:39:15;;;;;;;32.93;21.67;;;;;;;;;;5034845;28;20231;-89
2022/03/17 08:41:42;;;;;;;32.57;21.37;;;;;;;;;;5024139;28;20211;-89
2022/03/17 08:44:09;;;;;;;30.37;21.23;;;;;;;;;;5031373;28;20285;-89
2022/03/17 08:49:48;;;;;;;33.13;23.07;;;;;;;;;;4996868;28;20706;-89
2022/03/17 08:52:15;;;;;;;30.83;20.40;;;;;;;;;;4991715;28;20234;-89
2022/03/17 08:54:44;;;;;;;34.73;22.20;;;;;;;;;;5031550;28;20594;-89
2022/03/17 08:57:12;;;;;;;30.60;20.97;;;;;;;;;;5025360;28;20207;-89
2022/03/17 08:59:39;;;;;;;35.60;21.17;;;;;;;;;;5022934;28;20199;-89
2022/03/17 09:02:11;;;;;;;31.13;20.87;;;;;;;;;;5014926;28;20207;-89
2022/03/17 09:04:39;;;;;;;33.53;21.53;;;;;;;;;;5041711;28;20257;-89
2022/03/17 09:07:06;;;;;;;29.10;21.20;;;;;;;;;;5030685;28;20214;-89
2022/03/17 09:09:35;;;;;;;29.83;20.43;;;;;;;;;;5019523;28;20230;-89
2022/03/17 09:12:05;;;;;;;29.07;21.07;;;;;;;;;;5019392;28;20214;-89
2022/03/17 09:14:32;;;;;;;31.80;21.30;;;;;;;;;;5033586;28;20222;-89
2022/03/17 09:17:00;;;;;;;32.77;21.23;;;;;;;;;;5023546;28;20204;-89
2022/03/17 09:19:27;;;;;;;30.93;21.37;;;;;;;;;;5029520;28;20205;-89
2022/03/17 09:21:55;;;;;;;30.50;21.10;;;;;;;;;;5029299;28;20233;-89
2022/03/17 09:24:22;;;;;;;34.33;21.40;;;;;;;;;;5021582;28;20235;-89
2022/03/17 09:26:49;;;;;;;32.93;21.10;;;;;;;;;;5013972;28;20203;-89
2022/03/17 09:29:18;;;;;;;32.00;20.67;;;;;;;;;;5014482;28;20274;-88
2022/03/17 09:31:46;;;;;;;33.37;22.57;;;;;;;;;;5028626;28;20211;-89
2022/03/17 09:34:14;;;;;;;32.93;20.87;;;;;;;;;;5026431;28;20317;-88
2022/03/17 09:36:41;;;;;;;33.43;21.70;;;;;;;;;;5031720;28;20218;-89
2022/03/17 09:42:00;;;;;;;34.53;22.43;;;;;;;;;;5020343;28;20198;-88
2022/03/17 09:44:29;;;;;;;30.13;20.70;;;;;;;;;;5022554;28;20252;-89
2022/03/17 09:46:56;;;;;;;34.83;21.87;;;;;;;;;;5030416;28;20229;-89
2022/03/17 09:49:24;;;;;;;34.17;22.47;;;;;;;;;;5030963;28;20222;-89
2022/03/17 09:51:54;;;;;;;32.30;21.93;;;;;;;;;;5025740;28;20206;-90
2022/03/17 09:54:22;;;;;;;29.17;19.47;;;;;;;;;;5024269;28;20222;-90
2022/03/17 09:56:49;;;;;;;30.03;20.70;;;;;;;;;;5031443;28;20867;-90
2022/03/17 09:59:16;;;;;;;30.03;20.50;;;;;;;;;;5030643;28;20206;-89
2022/03/17 10:01:45;;;;;;;29.10;20.47;;;;;;;;;;5030936;28;20206;-89
2022/03/17 10:04:13;;;;;;;33.27;21.47;;;;;;;;;;5024945;28;20292;-89
2022/03/17 10:06:41;;;;;;;31.90;22.07;;;;;;;;;;5016264;28;20265;-89
2022/03/17 10:09:08;;;;;;;36.70;22.43;;;;;;;;;;5020983;28;20855;-89
2022/03/17 10:11:37;;;;;;;30.63;21.60;;;;;;;;;;5026009;28;20602;-89
2022/03/17 10:14:06;;;;;;;34.30;22.37;;;;;;;;;;5032723;28;20330;-89
2022/03/17 10:16:33;;;;;;;32.27;22.23;;;;;;;;;;5029792;28;20288;-89
2022/03/17 10:19:03;;;;;;;30.87;21.43;;;;;;;;;;5022174;28;20213;-89
2022/03/17 10:21:53;;;;;;;32.97;21.77;;;;;;;;;;5027926;28;20206;-89
2022/03/17 10:24:20;;;;;;;34.83;22.90;;;;;;;;;;5026132;28;20313;-89
2022/03/17 10:26:49;;;;;;;34.00;21.37;;;;;;;;;;5023947;28;20276;-91
2022/03/17 10:29:19;;;;;;;29.57;19.77;;;;;;;;;;5025766;28;20302;-89
2022/03/17 10:31:54;;;;;;;31.93;20.47;;;;;;;;;;5030667;28;20213;-89
2022/03/17 10:34:23;;;;;;;32.37;19.97;;;;;;;;;;5017032;28;20250;-89
2022/03/17 10:36:51;;;;;;;33.30;21.80;;;;;;;;;;5032557;28;20268;-89
2022/03/17 10:39:19;;;;;;;33.37;21.97;;;;;;;;;;5029561;28;20231;-90
2022/03/17 10:41:47;;;;;;;31.93;21.20;;;;;;;;;;5017519;28;20207;-90
2022/03/17 10:44:15;;;;;;;30.17;20.90;;;;;;;;;;5033758;28;20296;-89
2022/03/17 10:46:55;;;;;;;31.43;21.57;;;;;;;;;;5010630;28;20219;-90
2022/03/17 10:49:24;;;;;;;32.87;22.17;;;;;;;;;;5035021;28;20703;-89
2022/03/17 10:51:54;;;;;;;35.17;22.57;;;;;;;;;;5030983;28;20269;-89
2022/03/17 10:54:21;;;;;;;31.87;20.77;;;;;;;;;;5034412;28;20226;-89
2022/03/17 10:57:03;;;;;;;34.63;22.13;;;;;;;;;;5025654;28;20211;-89
2022/03/17 10:59:42;;;;;;;36.13;21.60;;;;;;;;;;5017335;28;20294;-89
2022/03/17 11:02:09;;;;;;;32.47;21.97;;;;;;;;;;5024309;28;20209;-89
2022/03/17 11:04:39;;;;;;;33.77;22.73;;;;;;;;;;5024420;28;20284;-89
2022/03/17 11:07:17;;;;;;;33.63;22.07;;;;;;;;;;5015183;28;20242;-89
2022/03/17 11:09:45;;;;;;;32.10;21.17;;;;;;;;;;5033806;28;20305;-89
2022/03/17 11:12:13;;;;;;;36.10;22.57;;;;;;;;;;5039808;28;20276;-89
2022/03/17 11:14:44;;;;;;;32.33;21.90;;;;;;;;;;5032612;28;20227;-89
2022/03/17 11:17:12;;;;;;;32.53;22.40;;;;;;;;;;5012160;28;20218;-89
2022/03/17 11:19:44;;;;;;;35.80;22.33;;;;;;;;;;5014569;28;20199;-89
2022/03/17 11:22:15;;;;;;;31.90;22.53;;;;;;;;;;5012883;28;20629;-89
2022/03/17 11:24:43;;;;;;;35.80;22.47;;;;;;;;;;5020829;28;20742;-90
2022/03/17 11:27:11;;;;;;;33.67;22.63;;;;;;;;;;5019541;28;20575;-89
2022/03/17 11:29:40;;;;;;;37.30;23.63;;;;;;;;;;5032288;28;20277;-89
2022/03/17 11:32:09;;;;;;;32.60;23.37;;;;;;;;;;5024046;28;20289;-89
2022/03/17 11:34:48;;;;;;;32.80;22.37;;;;;;;;;;5023972;28;20245;-89
2022/03/17 11:37:16;;;;;;;34.90;23.30;;;;;;;;;;5030823;28;20310;-90
2022/03/17 11:39:51;;;;;;;36.10;24.07;;;;;;;;;;5023064;28;20614;-90
2022/03/17 11:42:32;;;;;;;36.43;23.77;;;;;;;;;;5025531;28;20302;-89
2022/03/17 11:45:18;;;;;;;34.90;23.90;;;;;;;;;;5047404;28;20221;-92
2022/03/17 11:47:47;;;;;;;36.90;22.93;;;;;;;;;;4999279;28;20234;-91
2022/03/17 11:50:26;;;;;;;34.90;22.23;;;;;;;;;;5022276;28;20218;-91
2022/03/17 11:52:54;;;;;;;39.93;23.17;;;;;;;;;;5028903;28;20246;-91
2022/03/17 11:55:35;;;;;;;38.97;23.70;;;;;;;;;;5019862;28;20211;-91
2022/03/17 11:58:37;;;;;;;39.40;23.30;;;;;;;;;;5023512;28;20331;-90
2022/03/17 12:01:06;;;;;;;37.90;23.70;;;;;;;;;;4959708;28;20307;-91
2022/03/17 12:03:34;;;;;;;35.87;22.70;;;;;;;;;;4965857;28;20645;-91
2022/03/17 12:06:15;;;;;;;39.13;23.87;;;;;;;;;;4988155;28;20203;-91
2022/03/17 12:08:44;;;;;;;41.37;24.33;;;;;;;;;;5031800;28;20229;-90
2022/03/17 12:11:13;;;;;;;35.27;22.77;;;;;;;;;;5033003;28;20261;-91
2022/03/17 12:13:40;;;;;;;31.77;21.60;;;;;;;;;;5030278;28;20704;-91
2022/03/17 12:16:08;;;;;;;37.00;23.67;;;;;;;;;;5038594;28;20217;-90
2022/03/17 12:18:54;;;;;;;32.90;22.40;;;;;;;;;;5024827;28;20249;-91
2022/03/17 12:21:43;;;;;;;33.33;22.50;;;;;;;;;;5011517;28;20322;-90
2022/03/17 12:24:10;;;;;;;33.60;21.27;;;;;;;;;;5020899;28;20288;-91
2022/03/17 12:26:37;;;;;;;32.40;23.17;;;;;;;;;;5032650;28;20207;-91
2022/03/17 12:29:07;;;;;;;34.30;23.23;;;;;;;;;;5016942;28;20277;-91
2022/03/17 12:31:34;;;;;;;34.87;23.23;;;;;;;;;;5035049;28;20241;-91
2022/03/17 12:34:01;;;;;;;36.43;23.43;;;;;;;;;;5033400;28;20234;-91
2022/03/17 12:36:30;;;;;;;35.60;23.07;;;;;;;;;;5034472;28;20202;-91
2022/03/17 12:38:57;;;;;;;31.33;21.43;;;;;;;;;;5034829;28;20641;-91
2022/03/17 12:41:28;;;;;;;32.40;23.37;;;;;;;;;;5036681;28;20210;-92
2022/03/17 12:43:55;;;;;;;35.13;22.87;;;;;;;;;;5023569;28;20288;-90
2022/03/17 12:46:23;;;;;;;35.90;23.27;;;;;;;;;;5016799;28;20213;-90
2022/03/17 12:48:50;;;;;;;35.90;23.03;;;;;;;;;;5029626;28;20717;-91
2022/03/17 12:51:20;;;;;;;33.33;22.27;;;;;;;;;;5029548;28;20207;-91
2022/03/17 12:53:49;;;;;;;34.13;22.43;;;;;;;;;;5016873;28;20273;-91
2022/03/17 12:56:17;;;;;;;37.73;24.47;;;;;;;;;;5029796;28;20210;-91
2022/03/17 12:58:47;;;;;;;36.90;24.07;;;;;;;;;;5035071;28;20207;-90
2022/03/17 13:01:15;;;;;;;34.60;21.90;;;;;;;;;;5026765;28;20202;-91
2022/03/17 13:03:43;;;;;;;34.33;22.13;;;;;;;;;;5033942;28;20234;-91
2022/03/17 13:08:57;;;;;;;33.57;22.00;;;;;;;;;;5035933;28;20228;-90
2022/03/17 13:14:21;;;;;;;35.67;22.27;;;;;;;;;;5029583;28;20697;-90
2022/03/17 13:17:09;;;;;;;34.00;22.10;;;;;;;;;;5035296;28;20257;-90
2022/03/17 13:19:44;;;;;;;31.80;22.53;;;;;;;;;;5031769;28;20278;-91
2022/03/17 13:22:12;;;;;;;33.30;22.97;;;;;;;;;;5034324;28;20300;-91
2022/03/17 13:24:40;;;;;;;38.60;23.83;;;;;;;;;;5035138;28;20269;-91
2022/03/17 13:27:08;;;;;;;37.87;24.60;;;;;;;;;;5038181;28;20210;-91
2022/03/17 13:29:36;;;;;;;38.40;23.30;;;;;;;;;;5018467;28;20249;-90
2022/03/17 13:32:04;;;;;;;30.57;21.63;;;;;;;;;;5017536;28;20303;-91
2022/03/17 13:34:33;;;;;;;34.90;22.90;;;;;;;;;;5030616;28;20272;-90
2022/03/17 13:37:02;;;;;;;34.43;22.17;;;;;;;;;;5024550;28;20213;-91
2022/03/17 13:39:34;;;;;;;36.40;22.67;;;;;;;;;;5032974;28;20641;-91
2022/03/17 13:42:05;;;;;;;39.73;23.37;;;;;;;;;;5034228;28;20230;-91
2022/03/17 13:44:46;;;;;;;36.63;22.97;;;;;;;;;;5027831;28;20218;-91
2022/03/17 13:47:14;;;;;;;32.70;20.67;;;;;;;;;;5026382;28;20290;-91
2022/03/17 13:49:41;;;;;;;35.87;22.77;;;;;;;;;;5033329;28;20300;-91
2022/03/17 13:52:11;;;;;;;38.27;22.60;;;;;;;;;;5023998;28;20206;-91
2022/03/17 13:54:43;;;;;;;36.10;22.97;;;;;;;;;;5026247;28;20306;-90
2022/03/17 13:57:11;;;;;;;36.57;23.90;;;;;;;;;;5013987;28;20227;-91
2022/03/17 13:59:42;;;;;;;33.30;22.10;;;;;;;;;;5026084;28;20265;-91
2022/03/17 14:02:13;;;;;;;35.73;22.77;;;;;;;;;;5025779;28;20210;-90
2022/03/17 14:04:57;;;;;;;35.30;22.23;;;;;;;;;;5034524;28;20268;-91
2022/03/17 14:07:46;;;;;;;36.03;23.87;;;;;;;;;;5018382;28;20654;-91
2022/03/17 14:10:13;;;;;;;34.67;21.60;;;;;;;;;;5028061;28;20223;-91
2022/03/17 14:12:42;;;;;;;38.73;24.00;;;;;;;;;;5028103;28;20276;-90
2022/03/17 14:15:10;;;;;;;41.47;23.20;;;;;;;;;;5033459;28;20615;-91
2022/03/17 14:17:37;;;;;;;36.27;23.63;;;;;;;;;;5028840;28;20214;-91
2022/03/17 14:20:05;;;;;;;37.23;23.80;;;;;;;;;;5023657;28;20205;-91
2022/03/17 14:25:17;;;;;;;43.13;24.93;;;;;;;;;;5024417;28;20307;-91
2022/03/17 14:27:47;;;;;;;41.03;24.23;;;;;;;;;;5020540;28;20194;-91
2022/03/17 14:30:14;;;;;;;38.30;24.57;;;;;;;;;;5030030;28;20292;-91
2022/03/17 14:32:41;;;;;;;39.13;24.40;;;;;;;;;;5035681;28;20642;-91
2022/03/17 14:35:09;;;;;;;38.80;24.73;;;;;;;;;;5043101;28;20256;-91
2022/03/17 14:37:40;;;;;;;35.50;23.03;;;;;;;;;;5032366;28;20237;-91
2022/03/17 14:40:08;;;;;;;36.73;24.87;;;;;;;;;;5028042;28;20721;-91
2022/03/17 14:42:36;;;;;;;38.97;24.87;;;;;;;;;;5036402;28;20256;-91
2022/03/17 14:45:05;;;;;;;38.40;25.50;;;;;;;;;;5026077;28;20229;-91
2022/03/17 14:47:34;;;;;;;39.07;24.40;;;;;;;;;;5034289;28;20795;-91
2022/03/17 14:50:02;;;;;;;40.47;25.00;;;;;;;;;;5034250;28;20269;-91
2022/03/17 14:52:29;;;;;;;38.83;24.67;;;;;;;;;;5032253;28;20207;-91
2022/03/17 14:54:56;;;;;;;35.23;22.37;;;;;;;;;;5031265;28;20279;-90
2022/03/17 14:57:30;;;;;;;36.47;24.07;;;;;;;;;;5029225;28;20202;-91
2022/03/17 14:59:58;;;;;;;34.57;22.90;;;;;;;;;;5031196;28;20353;-91
2022/03/17 15:02:27;;;;;;;36.27;22.53;;;;;;;;;;5012798;28;20207;-91
2022/03/17 15:04:54;;;;;;;35.60;24.63;;;;;;;;;;5027698;28;20214;-91